sensor_id;sensor_type;location;lat;lon;timestamp;P1;durP1;ratioP1;P2;durP2;ratioP2
53313;SDS011;39202;51.468;7.146;2023-08-31T00:03:05;1.05;;;1.05;;
53313;SDS011;39202;51.468;7.146;2023-08-31T00:08:07;1.00;;;1.00;;
53313;SDS011;39202;51.468;7.146;2023-08-31T00:13:10;0.95;;;0.95;;
53313;SDS011;39202;51.468;7.146;2023-08-31T00:18:12;1.13;;;1.13;;
53313;SDS011;39202;51.468;7.146;2023-08-31T00:23:16;0.82;;;0.82;;
53313;SDS011;39202;51.468;7.146;2023-08-31T00:28:20;1.05;;;1.05;;
53313;SDS011;39202;51.468;7.146;2023-08-31T00:33:22;1.10;;;1.10;;
53313;SDS011;39202;51.468;7.146;2023-08-31T00:38:24;0.95;;;0.95;;
53313;SDS011;39202;51.468;7.146;2023-08-31T00:43:27;1.00;;;1.00;;
53313;SDS011;39202;51.468;7.146;2023-08-31T00:48:29;1.00;;;1.00;;
53313;SDS011;39202;51.468;7.146;2023-08-31T00:53:31;0.80;;;0.80;;
53313;SDS011;39202;51.468;7.146;2023-08-31T00:58:35;0.90;;;0.90;;
53313;SDS011;39202;51.468;7.146;2023-08-31T01:03:40;1.02;;;1.02;;
53313;SDS011;39202;51.468;7.146;2023-08-31T01:08:47;1.25;;;1.15;;
53313;SDS011;39202;51.468;7.146;2023-08-31T01:13:59;0.93;;;0.93;;
53313;SDS011;39202;51.468;7.146;2023-08-31T01:19:06;1.00;;;1.00;;
53313;SDS011;39202;51.468;7.146;2023-08-31T01:24:27;0.82;;;0.82;;
53313;SDS011;39202;51.468;7.146;2023-08-31T01:29:29;0.95;;;0.95;;
53313;SDS011;39202;51.468;7.146;2023-08-31T01:34:31;1.30;;;1.20;;
53313;SDS011;39202;51.468;7.146;2023-08-31T01:39:35;1.17;;;1.08;;
53313;SDS011;39202;51.468;7.146;2023-08-31T01:44:42;0.93;;;0.93;;
53313;SDS011;39202;51.468;7.146;2023-08-31T01:49:48;0.90;;;0.90;;
53313;SDS011;39202;51.468;7.146;2023-08-31T01:54:51;0.90;;;0.90;;
53313;SDS011;39202;51.468;7.146;2023-08-31T01:59:53;0.93;;;0.93;;
53313;SDS011;39202;51.468;7.146;2023-08-31T02:04:55;1.00;;;1.00;;
53313;SDS011;39202;51.468;7.146;2023-08-31T02:09:58;1.02;;;1.02;;
53313;SDS011;39202;51.468;7.146;2023-08-31T02:15:00;1.05;;;1.05;;
53313;SDS011;39202;51.468;7.146;2023-08-31T02:20:02;1.00;;;1.00;;
53313;SDS011;39202;51.468;7.146;2023-08-31T02:25:08;0.90;;;0.90;;
53313;SDS011;39202;51.468;7.146;2023-08-31T02:30:10;0.93;;;0.93;;
53313;SDS011;39202;51.468;7.146;2023-08-31T02:35:12;1.00;;;1.00;;
53313;SDS011;39202;51.468;7.146;2023-08-31T02:40:15;0.90;;;0.90;;
53313;SDS011;39202;51.468;7.146;2023-08-31T02:45:17;0.68;;;0.68;;
53313;SDS011;39202;51.468;7.146;2023-08-31T02:50:18;0.80;;;0.80;;
53313;SDS011;39202;51.468;7.146;2023-08-31T02:55:22;0.90;;;0.90;;
53313;SDS011;39202;51.468;7.146;2023-08-31T03:00:23;0.95;;;0.95;;
53313;SDS011;39202;51.468;7.146;2023-08-31T03:05:25;0.93;;;0.93;;
53313;SDS011;39202;51.468;7.146;2023-08-31T03:10:28;0.90;;;0.90;;
53313;SDS011;39202;51.468;7.146;2023-08-31T03:15:31;1.00;;;1.00;;
53313;SDS011;39202;51.468;7.146;2023-08-31T03:20:34;0.80;;;0.80;;
53313;SDS011;39202;51.468;7.146;2023-08-31T03:25:37;0.90;;;0.90;;
53313;SDS011;39202;51.468;7.146;2023-08-31T03:30:39;0.98;;;0.90;;
53313;SDS011;39202;51.468;7.146;2023-08-31T03:35:41;0.80;;;0.80;;
53313;SDS011;39202;51.468;7.146;2023-08-31T03:40:44;0.75;;;0.75;;
53313;SDS011;39202;51.468;7.146;2023-08-31T03:45:54;0.70;;;0.70;;
53313;SDS011;39202;51.468;7.146;2023-08-31T03:50:56;1.00;;;1.00;;
53313;SDS011;39202;51.468;7.146;2023-08-31T03:56:00;0.75;;;0.75;;
53313;SDS011;39202;51.468;7.146;2023-08-31T04:01:04;0.88;;;0.88;;
53313;SDS011;39202;51.468;7.146;2023-08-31T04:06:06;0.90;;;0.90;;
53313;SDS011;39202;51.468;7.146;2023-08-31T04:11:09;0.90;;;0.90;;
53313;SDS011;39202;51.468;7.146;2023-08-31T04:16:11;0.90;;;0.80;;
53313;SDS011;39202;51.468;7.146;2023-08-31T04:21:12;0.77;;;0.77;;
53313;SDS011;39202;51.468;7.146;2023-08-31T04:26:16;1.00;;;1.00;;
53313;SDS011;39202;51.468;7.146;2023-08-31T04:31:17;0.80;;;0.80;;
53313;SDS011;39202;51.468;7.146;2023-08-31T04:36:19;0.75;;;0.75;;
53313;SDS011;39202;51.468;7.146;2023-08-31T04:41:23;0.85;;;0.85;;
53313;SDS011;39202;51.468;7.146;2023-08-31T04:46:24;0.90;;;0.90;;
53313;SDS011;39202;51.468;7.146;2023-08-31T04:51:27;0.90;;;0.90;;
53313;SDS011;39202;51.468;7.146;2023-08-31T04:56:31;1.00;;;1.00;;
53313;SDS011;39202;51.468;7.146;2023-08-31T05:01:34;0.85;;;0.85;;
53313;SDS011;39202;51.468;7.146;2023-08-31T05:06:36;0.85;;;0.85;;
53313;SDS011;39202;51.468;7.146;2023-08-31T05:11:39;0.77;;;0.77;;
53313;SDS011;39202;51.468;7.146;2023-08-31T05:16:41;0.80;;;0.80;;
53313;SDS011;39202;51.468;7.146;2023-08-31T05:21:43;1.10;;;1.10;;
53313;SDS011;39202;51.468;7.146;2023-08-31T05:26:46;2.75;;;1.00;;
53313;SDS011;39202;51.468;7.146;2023-08-31T05:31:48;1.08;;;1.00;;
53313;SDS011;39202;51.468;7.146;2023-08-31T05:36:52;1.92;;;1.30;;
53313;SDS011;39202;51.468;7.146;2023-08-31T05:41:55;1.80;;;1.50;;
53313;SDS011;39202;51.468;7.146;2023-08-31T05:46:57;2.60;;;1.60;;
53313;SDS011;39202;51.468;7.146;2023-08-31T05:51:58;2.30;;;1.60;;
53313;SDS011;39202;51.468;7.146;2023-08-31T05:57:02;1.67;;;1.48;;
53313;SDS011;39202;51.468;7.146;2023-08-31T06:02:05;3.38;;;1.60;;
53313;SDS011;39202;51.468;7.146;2023-08-31T06:07:09;2.70;;;1.90;;
53313;SDS011;39202;51.468;7.146;2023-08-31T06:12:12;2.95;;;1.90;;
53313;SDS011;39202;51.468;7.146;2023-08-31T06:17:13;3.08;;;1.83;;
53313;SDS011;39202;51.468;7.146;2023-08-31T06:22:15;3.03;;;1.75;;
53313;SDS011;39202;51.468;7.146;2023-08-31T06:27:19;2.90;;;1.90;;
53313;SDS011;39202;51.468;7.146;2023-08-31T06:32:21;3.47;;;2.03;;
53313;SDS011;39202;51.468;7.146;2023-08-31T06:37:24;6.57;;;3.00;;
53313;SDS011;39202;51.468;7.146;2023-08-31T06:42:27;5.93;;;3.30;;
53313;SDS011;39202;51.468;7.146;2023-08-31T06:47:29;6.22;;;2.65;;
53313;SDS011;39202;51.468;7.146;2023-08-31T06:52:30;4.45;;;2.58;;
53313;SDS011;39202;51.468;7.146;2023-08-31T06:57:33;3.22;;;2.20;;
53313;SDS011;39202;51.468;7.146;2023-08-31T07:02:37;4.13;;;1.92;;
53313;SDS011;39202;51.468;7.146;2023-08-31T07:07:40;2.78;;;2.00;;
53313;SDS011;39202;51.468;7.146;2023-08-31T07:12:43;2.35;;;1.95;;
53313;SDS011;39202;51.468;7.146;2023-08-31T07:17:45;3.97;;;2.22;;
53313;SDS011;39202;51.468;7.146;2023-08-31T07:22:47;1.92;;;1.75;;
53313;SDS011;39202;51.468;7.146;2023-08-31T07:27:51;2.60;;;2.10;;
53313;SDS011;39202;51.468;7.146;2023-08-31T07:32:53;2.47;;;1.70;;
53313;SDS011;39202;51.468;7.146;2023-08-31T07:37:54;2.05;;;1.67;;
53313;SDS011;39202;51.468;7.146;2023-08-31T07:42:58;1.90;;;1.60;;
53313;SDS011;39202;51.468;7.146;2023-08-31T07:47:59;1.45;;;1.33;;
53313;SDS011;39202;51.468;7.146;2023-08-31T07:53:01;1.80;;;1.70;;
53313;SDS011;39202;51.468;7.146;2023-08-31T07:58:05;2.10;;;1.63;;
53313;SDS011;39202;51.468;7.146;2023-08-31T08:03:06;1.77;;;1.50;;
53313;SDS011;39202;51.468;7.146;2023-08-31T08:08:08;2.40;;;1.50;;
53313;SDS011;39202;51.468;7.146;2023-08-31T08:13:11;2.65;;;1.63;;
53313;SDS011;39202;51.468;7.146;2023-08-31T08:18:13;1.73;;;1.33;;
53313;SDS011;39202;51.468;7.146;2023-08-31T08:23:14;1.42;;;1.35;;
53313;SDS011;39202;51.468;7.146;2023-08-31T08:28:17;1.85;;;1.60;;
53313;SDS011;39202;51.468;7.146;2023-08-31T08:33:19;2.13;;;1.50;;
53313;SDS011;39202;51.468;7.146;2023-08-31T08:38:21;1.48;;;1.20;;
53313;SDS011;39202;51.468;7.146;2023-08-31T08:43:25;1.88;;;1.48;;
53313;SDS011;39202;51.468;7.146;2023-08-31T08:48:27;1.45;;;1.10;;
53313;SDS011;39202;51.468;7.146;2023-08-31T08:53:29;1.30;;;1.20;;
53313;SDS011;39202;51.468;7.146;2023-08-31T08:58:32;1.38;;;1.27;;
53313;SDS011;39202;51.468;7.146;2023-08-31T09:03:34;1.25;;;1.20;;
53313;SDS011;39202;51.468;7.146;2023-08-31T09:08:36;1.23;;;1.15;;
53313;SDS011;39202;51.468;7.146;2023-08-31T09:13:39;1.83;;;1.33;;
53313;SDS011;39202;51.468;7.146;2023-08-31T09:18:41;5.78;;;1.30;;
53313;SDS011;39202;51.468;7.146;2023-08-31T09:23:44;1.50;;;1.33;;
53313;SDS011;39202;51.468;7.146;2023-08-31T09:28:50;1.50;;;1.40;;
53313;SDS011;39202;51.468;7.146;2023-08-31T09:33:52;1.52;;;1.30;;
53313;SDS011;39202;51.468;7.146;2023-08-31T09:38:56;1.88;;;1.20;;
53313;SDS011;39202;51.468;7.146;2023-08-31T09:44:01;1.52;;;1.40;;
53313;SDS011;39202;51.468;7.146;2023-08-31T09:49:16;1.42;;;1.33;;
53313;SDS011;39202;51.468;7.146;2023-08-31T09:54:19;1.13;;;1.10;;
53313;SDS011;39202;51.468;7.146;2023-08-31T09:59:26;1.30;;;1.20;;
53313;SDS011;39202;51.468;7.146;2023-08-31T10:04:29;2.47;;;1.40;;
53313;SDS011;39202;51.468;7.146;2023-08-31T10:09:32;1.33;;;1.08;;
53313;SDS011;39202;51.468;7.146;2023-08-31T10:14:35;1.30;;;1.05;;
53313;SDS011;39202;51.468;7.146;2023-08-31T10:19:37;1.55;;;1.20;;
53313;SDS011;39202;51.468;7.146;2023-08-31T10:24:59;1.10;;;1.10;;
53313;SDS011;39202;51.468;7.146;2023-08-31T10:30:15;0.90;;;0.90;;
53313;SDS011;39202;51.468;7.146;2023-08-31T10:35:25;1.17;;;1.08;;
53313;SDS011;39202;51.468;7.146;2023-08-31T10:40:42;1.40;;;1.30;;
53313;SDS011;39202;51.468;7.146;2023-08-31T10:46:01;1.00;;;1.00;;
53313;SDS011;39202;51.468;7.146;2023-08-31T10:51:03;1.48;;;1.25;;
53313;SDS011;39202;51.468;7.146;2023-08-31T10:56:05;1.20;;;1.10;;
53313;SDS011;39202;51.468;7.146;2023-08-31T11:01:08;4.25;;;1.30;;
53313;SDS011;39202;51.468;7.146;2023-08-31T11:06:10;2.58;;;1.38;;
53313;SDS011;39202;51.468;7.146;2023-08-31T11:11:12;2.58;;;1.60;;
53313;SDS011;39202;51.468;7.146;2023-08-31T11:16:15;1.33;;;1.23;;
53313;SDS011;39202;51.468;7.146;2023-08-31T11:21:17;2.10;;;1.20;;
53313;SDS011;39202;51.468;7.146;2023-08-31T11:26:19;1.20;;;1.10;;
53313;SDS011;39202;51.468;7.146;2023-08-31T11:31:26;1.17;;;1.08;;
53313;SDS011;39202;51.468;7.146;2023-08-31T11:36:27;1.42;;;1.30;;
53313;SDS011;39202;51.468;7.146;2023-08-31T11:41:30;1.30;;;1.20;;
53313;SDS011;39202;51.468;7.146;2023-08-31T11:46:34;1.20;;;1.15;;
53313;SDS011;39202;51.468;7.146;2023-08-31T11:51:36;1.35;;;1.30;;
53313;SDS011;39202;51.468;7.146;2023-08-31T11:56:41;1.35;;;1.20;;
53313;SDS011;39202;51.468;7.146;2023-08-31T12:01:45;1.48;;;1.15;;
53313;SDS011;39202;51.468;7.146;2023-08-31T12:06:49;1.73;;;1.00;;
53313;SDS011;39202;51.468;7.146;2023-08-31T12:11:51;1.02;;;1.02;;
53313;SDS011;39202;51.468;7.146;2023-08-31T12:17:01;1.83;;;1.10;;
53313;SDS011;39202;51.468;7.146;2023-08-31T12:22:04;1.20;;;1.20;;
53313;SDS011;39202;51.468;7.146;2023-08-31T12:27:07;1.10;;;1.10;;
53313;SDS011;39202;51.468;7.146;2023-08-31T12:32:11;2.40;;;1.10;;
53313;SDS011;39202;51.468;7.146;2023-08-31T12:37:13;1.00;;;1.00;;
53313;SDS011;39202;51.468;7.146;2023-08-31T12:42:14;1.30;;;1.20;;
53313;SDS011;39202;51.468;7.146;2023-08-31T12:47:17;1.00;;;1.00;;
53313;SDS011;39202;51.468;7.146;2023-08-31T12:52:19;1.35;;;1.25;;
53313;SDS011;39202;51.468;7.146;2023-08-31T12:57:21;1.38;;;1.27;;
53313;SDS011;39202;51.468;7.146;2023-08-31T13:02:24;1.65;;;1.10;;
53313;SDS011;39202;51.468;7.146;2023-08-31T13:07:25;1.48;;;1.10;;
53313;SDS011;39202;51.468;7.146;2023-08-31T13:12:27;1.17;;;1.13;;
53313;SDS011;39202;51.468;7.146;2023-08-31T13:17:30;1.20;;;1.10;;
53313;SDS011;39202;51.468;7.146;2023-08-31T13:22:32;1.90;;;1.13;;
53313;SDS011;39202;51.468;7.146;2023-08-31T13:27:34;1.40;;;1.30;;
53313;SDS011;39202;51.468;7.146;2023-08-31T13:32:37;1.40;;;1.20;;
53313;SDS011;39202;51.468;7.146;2023-08-31T13:37:39;1.20;;;1.13;;
53313;SDS011;39202;51.468;7.146;2023-08-31T13:42:48;1.40;;;1.10;;
53313;SDS011;39202;51.468;7.146;2023-08-31T13:47:55;1.45;;;1.10;;
53313;SDS011;39202;51.468;7.146;2023-08-31T13:52:57;1.38;;;1.20;;
53313;SDS011;39202;51.468;7.146;2023-08-31T13:58:03;1.20;;;1.10;;
53313;SDS011;39202;51.468;7.146;2023-08-31T14:03:07;2.17;;;1.45;;
53313;SDS011;39202;51.468;7.146;2023-08-31T14:08:09;3.75;;;1.20;;
53313;SDS011;39202;51.468;7.146;2023-08-31T14:13:10;1.45;;;1.30;;
53313;SDS011;39202;51.468;7.146;2023-08-31T14:18:14;1.70;;;1.30;;
53313;SDS011;39202;51.468;7.146;2023-08-31T14:23:15;1.40;;;1.30;;
53313;SDS011;39202;51.468;7.146;2023-08-31T14:28:17;2.10;;;1.40;;
53313;SDS011;39202;51.468;7.146;2023-08-31T14:33:20;1.60;;;1.30;;
53313;SDS011;39202;51.468;7.146;2023-08-31T14:38:22;2.72;;;1.13;;
53313;SDS011;39202;51.468;7.146;2023-08-31T14:43:24;1.38;;;1.10;;
53313;SDS011;39202;51.468;7.146;2023-08-31T14:48:27;1.10;;;1.00;;
53313;SDS011;39202;51.468;7.146;2023-08-31T14:53:29;1.30;;;1.15;;
53313;SDS011;39202;51.468;7.146;2023-08-31T14:58:31;1.00;;;1.00;;
53313;SDS011;39202;51.468;7.146;2023-08-31T15:03:34;1.25;;;1.10;;
53313;SDS011;39202;51.468;7.146;2023-08-31T15:08:37;1.17;;;1.08;;
53313;SDS011;39202;51.468;7.146;2023-08-31T15:13:39;1.40;;;1.10;;
53313;SDS011;39202;51.468;7.146;2023-08-31T15:18:43;1.00;;;1.00;;
53313;SDS011;39202;51.468;7.146;2023-08-31T15:23:47;1.13;;;1.02;;
53313;SDS011;39202;51.468;7.146;2023-08-31T15:28:50;1.00;;;0.85;;
53313;SDS011;39202;51.468;7.146;2023-08-31T15:33:53;1.45;;;1.27;;
53313;SDS011;39202;51.468;7.146;2023-08-31T15:38:55;1.00;;;1.00;;
53313;SDS011;39202;51.468;7.146;2023-08-31T15:43:57;1.00;;;1.00;;
53313;SDS011;39202;51.468;7.146;2023-08-31T15:49:00;1.08;;;1.00;;
53313;SDS011;39202;51.468;7.146;2023-08-31T15:54:02;1.13;;;1.10;;
53313;SDS011;39202;51.468;7.146;2023-08-31T15:59:04;0.93;;;0.93;;
53313;SDS011;39202;51.468;7.146;2023-08-31T16:04:07;1.10;;;1.10;;
53313;SDS011;39202;51.468;7.146;2023-08-31T16:09:09;1.05;;;1.05;;
53313;SDS011;39202;51.468;7.146;2023-08-31T16:14:11;1.10;;;1.00;;
53313;SDS011;39202;51.468;7.146;2023-08-31T16:19:14;1.00;;;1.00;;
53313;SDS011;39202;51.468;7.146;2023-08-31T16:24:15;0.88;;;0.88;;
53313;SDS011;39202;51.468;7.146;2023-08-31T16:29:17;1.13;;;1.00;;
53313;SDS011;39202;51.468;7.146;2023-08-31T16:34:20;1.05;;;0.98;;
53313;SDS011;39202;51.468;7.146;2023-08-31T16:39:22;1.08;;;1.08;;
53313;SDS011;39202;51.468;7.146;2023-08-31T16:44:24;1.63;;;0.98;;
53313;SDS011;39202;51.468;7.146;2023-08-31T16:49:28;0.80;;;0.80;;
53313;SDS011;39202;51.468;7.146;2023-08-31T16:54:30;1.10;;;1.00;;
53313;SDS011;39202;51.468;7.146;2023-08-31T16:59:32;1.25;;;1.00;;
53313;SDS011;39202;51.468;7.146;2023-08-31T17:04:35;0.90;;;0.90;;
53313;SDS011;39202;51.468;7.146;2023-08-31T17:09:37;1.02;;;1.02;;
53313;SDS011;39202;51.468;7.146;2023-08-31T17:14:38;0.90;;;0.90;;
53313;SDS011;39202;51.468;7.146;2023-08-31T17:19:45;1.35;;;1.00;;
53313;SDS011;39202;51.468;7.146;2023-08-31T17:24:46;1.02;;;1.02;;
53313;SDS011;39202;51.468;7.146;2023-08-31T17:29:48;1.27;;;1.00;;
53313;SDS011;39202;51.468;7.146;2023-08-31T17:34:51;1.40;;;1.30;;
53313;SDS011;39202;51.468;7.146;2023-08-31T17:39:53;1.00;;;1.00;;
53313;SDS011;39202;51.468;7.146;2023-08-31T17:44:54;0.93;;;0.93;;
53313;SDS011;39202;51.468;7.146;2023-08-31T17:49:58;1.10;;;1.00;;
53313;SDS011;39202;51.468;7.146;2023-08-31T17:55:00;1.00;;;1.00;;
53313;SDS011;39202;51.468;7.146;2023-08-31T18:00:01;1.00;;;1.00;;
53313;SDS011;39202;51.468;7.146;2023-08-31T18:05:08;1.00;;;1.00;;
53313;SDS011;39202;51.468;7.146;2023-08-31T18:10:10;1.00;;;1.00;;
53313;SDS011;39202;51.468;7.146;2023-08-31T18:15:12;1.55;;;1.13;;
53313;SDS011;39202;51.468;7.146;2023-08-31T18:20:15;0.95;;;0.95;;
53313;SDS011;39202;51.468;7.146;2023-08-31T18:25:17;1.00;;;1.00;;
53313;SDS011;39202;51.468;7.146;2023-08-31T18:30:19;1.00;;;1.00;;
53313;SDS011;39202;51.468;7.146;2023-08-31T18:35:22;1.10;;;1.10;;
53313;SDS011;39202;51.468;7.146;2023-08-31T18:40:24;1.05;;;1.05;;
53313;SDS011;39202;51.468;7.146;2023-08-31T18:45:25;1.08;;;1.05;;
53313;SDS011;39202;51.468;7.146;2023-08-31T18:50:28;1.20;;;1.00;;
53313;SDS011;39202;51.468;7.146;2023-08-31T18:55:30;1.10;;;1.10;;
53313;SDS011;39202;51.468;7.146;2023-08-31T19:00:32;1.00;;;1.00;;
53313;SDS011;39202;51.468;7.146;2023-08-31T19:05:35;0.80;;;0.80;;
53313;SDS011;39202;51.468;7.146;2023-08-31T19:10:37;1.13;;;1.10;;
53313;SDS011;39202;51.468;7.146;2023-08-31T19:15:39;0.90;;;0.90;;
53313;SDS011;39202;51.468;7.146;2023-08-31T19:20:42;1.00;;;1.00;;
53313;SDS011;39202;51.468;7.146;2023-08-31T19:25:43;1.00;;;1.00;;
53313;SDS011;39202;51.468;7.146;2023-08-31T19:30:45;1.00;;;1.00;;
53313;SDS011;39202;51.468;7.146;2023-08-31T19:35:48;0.90;;;0.90;;
53313;SDS011;39202;51.468;7.146;2023-08-31T19:40:50;1.20;;;1.10;;
53313;SDS011;39202;51.468;7.146;2023-08-31T19:45:52;1.10;;;1.10;;
53313;SDS011;39202;51.468;7.146;2023-08-31T19:51:02;1.00;;;1.00;;
53313;SDS011;39202;51.468;7.146;2023-08-31T19:56:05;1.10;;;1.10;;
53313;SDS011;39202;51.468;7.146;2023-08-31T20:01:07;1.20;;;1.20;;
53313;SDS011;39202;51.468;7.146;2023-08-31T20:06:10;1.00;;;1.00;;
53313;SDS011;39202;51.468;7.146;2023-08-31T20:11:12;1.13;;;1.10;;
53313;SDS011;39202;51.468;7.146;2023-08-31T20:16:13;0.93;;;0.93;;
53313;SDS011;39202;51.468;7.146;2023-08-31T20:21:17;0.95;;;0.93;;
53313;SDS011;39202;51.468;7.146;2023-08-31T20:26:18;0.98;;;0.98;;
53313;SDS011;39202;51.468;7.146;2023-08-31T20:31:20;1.00;;;1.00;;
53313;SDS011;39202;51.468;7.146;2023-08-31T20:36:24;1.30;;;1.20;;
53313;SDS011;39202;51.468;7.146;2023-08-31T20:41:26;1.00;;;1.00;;
53313;SDS011;39202;51.468;7.146;2023-08-31T20:46:28;0.80;;;0.80;;
53313;SDS011;39202;51.468;7.146;2023-08-31T20:51:32;0.90;;;0.90;;
53313;SDS011;39202;51.468;7.146;2023-08-31T20:56:34;0.90;;;0.90;;
53313;SDS011;39202;51.468;7.146;2023-08-31T21:01:36;0.90;;;0.90;;
53313;SDS011;39202;51.468;7.146;2023-08-31T21:06:41;1.10;;;1.10;;
53313;SDS011;39202;51.468;7.146;2023-08-31T21:11:44;1.25;;;1.17;;
53313;SDS011;39202;51.468;7.146;2023-08-31T21:16:48;0.90;;;0.90;;
53313;SDS011;39202;51.468;7.146;2023-08-31T21:21:51;1.23;;;1.10;;
53313;SDS011;39202;51.468;7.146;2023-08-31T21:26:53;1.10;;;1.10;;
53313;SDS011;39202;51.468;7.146;2023-08-31T21:31:54;0.90;;;0.90;;
53313;SDS011;39202;51.468;7.146;2023-08-31T21:36:57;1.00;;;1.00;;
53313;SDS011;39202;51.468;7.146;2023-08-31T21:41:59;1.10;;;1.10;;
53313;SDS011;39202;51.468;7.146;2023-08-31T21:47:01;1.05;;;1.05;;
53313;SDS011;39202;51.468;7.146;2023-08-31T21:52:05;0.93;;;0.93;;
53313;SDS011;39202;51.468;7.146;2023-08-31T21:57:06;1.10;;;1.10;;
53313;SDS011;39202;51.468;7.146;2023-08-31T22:02:09;1.25;;;1.25;;
53313;SDS011;39202;51.468;7.146;2023-08-31T22:07:12;1.00;;;1.00;;
53313;SDS011;39202;51.468;7.146;2023-08-31T22:12:14;1.30;;;1.20;;
53313;SDS011;39202;51.468;7.146;2023-08-31T22:17:17;1.10;;;1.10;;
53313;SDS011;39202;51.468;7.146;2023-08-31T22:22:20;1.23;;;1.23;;
53313;SDS011;39202;51.468;7.146;2023-08-31T22:27:22;1.13;;;1.13;;
53313;SDS011;39202;51.468;7.146;2023-08-31T22:32:24;1.00;;;1.00;;
53313;SDS011;39202;51.468;7.146;2023-08-31T22:37:27;1.13;;;1.13;;
53313;SDS011;39202;51.468;7.146;2023-08-31T22:42:29;1.00;;;1.00;;
53313;SDS011;39202;51.468;7.146;2023-08-31T22:47:31;1.10;;;1.10;;
53313;SDS011;39202;51.468;7.146;2023-08-31T22:52:34;1.00;;;1.00;;
53313;SDS011;39202;51.468;7.146;2023-08-31T22:57:36;1.27;;;1.20;;
53313;SDS011;39202;51.468;7.146;2023-08-31T23:02:38;1.10;;;1.10;;
53313;SDS011;39202;51.468;7.146;2023-08-31T23:07:41;1.05;;;1.05;;
53313;SDS011;39202;51.468;7.146;2023-08-31T23:12:42;1.20;;;1.20;;
53313;SDS011;39202;51.468;7.146;2023-08-31T23:17:44;1.10;;;1.10;;
53313;SDS011;39202;51.468;7.146;2023-08-31T23:22:47;1.52;;;1.10;;
53313;SDS011;39202;51.468;7.146;2023-08-31T23:27:49;1.40;;;1.30;;
53313;SDS011;39202;51.468;7.146;2023-08-31T23:32:50;1.15;;;1.15;;
53313;SDS011;39202;51.468;7.146;2023-08-31T23:37:53;1.33;;;1.25;;
53313;SDS011;39202;51.468;7.146;2023-08-31T23:42:55;1.17;;;1.17;;
53313;SDS011;39202;51.468;7.146;2023-08-31T23:47:57;1.25;;;1.15;;
53313;SDS011;39202;51.468;7.146;2023-08-31T23:53:00;1.20;;;1.20;;
53313;SDS011;39202;51.468;7.146;2023-08-31T23:58:02;1.40;;;1.00;;
